This is the latest recevied weather packets stored in our database for station/object WX5RP. If no packets are shown the sender has not sent any weather packets the latest 10 day(s).
| Time | Temp. | Humidity | Pressure | Rain* | Wind** | Luminosity | Snow |
|---|---|---|---|---|---|---|---|
| 1787809815 | 15° C | 49% | 1019.5 hPa | 0 mm | - | 0 W/m² | - |
| 1787809215 | 14.44° C | 54% | 1019.2 hPa | 0 mm | - | 0 W/m² | - |
| 1787808615 | 13.89° C | 56% | 1019.2 hPa | 0 mm | - | 0 W/m² | - |
| 1787808015 | 15° C | 56% | 1018.9 hPa | 0 mm | - | 0 W/m² | - |
| 1787807415 | 15° C | 53% | 1019.4 hPa | 0 mm | - | 0 W/m² | - |
| 1787806815 | 14.44° C | 55% | 1019.2 hPa | 0 mm | - | 0 W/m² | - |
| 1787806215 | 15° C | 54% | 1019.1 hPa | 0 mm | - | 0 W/m² | - |
| 1787805617 | 15.56° C | 52% | 1018.8 hPa | 0 mm | - | 0 W/m² | - |
| 1787805017 | 16.11° C | 52% | 1018.8 hPa | 0 mm | - | 0 W/m² | - |
| 1787804417 | 16.11° C | 52% | 1018.6 hPa | 0 mm | - | 0 W/m² | - |
| 1787803817 | 15.56° C | 51% | 1019.1 hPa | 0 mm | - | 0 W/m² | - |
| 1787803217 | 16.67° C | 52% | 1019.4 hPa | 0 mm | - | 0 W/m² | - |
| 1787802617 | 18.89° C | 44% | 1018.7 hPa | 0 mm | - | 0 W/m² | - |
| 1787802017 | 20.56° C | 35% | 1018.5 hPa | 0 mm | - | 0 W/m² | - |
| 1787801417 | 20.56° C | 31% | 1018.2 hPa | 0 mm | - | 0 W/m² | - |
| 1787800817 | 20.56° C | 31% | 1017.8 hPa | 0 mm | - | 0 W/m² | - |
| 1787800216 | 21.11° C | 31% | 1018.5 hPa | 0 mm | - | 0 W/m² | - |
| 1787799617 | 21.67° C | 29% | 1018.2 hPa | 0 mm | - | 0 W/m² | - |
| 1787799016 | 22.78° C | 27% | 1017.9 hPa | 0 mm | - | 2 W/m² | - |
| 1787798417 | 23.33° C | 25% | 1017.4 hPa | 0 mm | - | 22 W/m² | - |
| 1787797817 | 24.44° C | 23% | 1017.1 hPa | 0 mm | - | 33 W/m² | - |
| 1787797216 | 25° C | 24% | 1016.8 hPa | 0 mm | - | 46 W/m² | - |
| 1787796617 | 25° C | 24% | 1018.3 hPa | 0 mm | - | 64 W/m² | - |
| 1787796022 | 23.89° C | 25% | 1018 hPa | 0 mm | - | 65 W/m² | - |
| 1787795418 | 23.33° C | 32% | 1018.1 hPa | 0 mm | - | 71 W/m² | - |
* Rain latest hour (hover to see other rain measurements)
** Current wind speed in m/s (hover to see current wind gust speed)